Time,TemperatureF,DewpointF,PressureIn,WindDirection,WindDirectionDegrees,WindSpeedMPH,WindSpeedGustMPH,Humidity,HourlyPrecipIn,Conditions,Clouds,dailyrainin,SoftwareType,DateUTC
2013-05-12 00:02:00,48.7,41.5,30.19,WSW,248,0.0,0.0,76,0.00,,,0.00,Wunderground v.1.15,2013-05-12 05:02:00,
2013-05-12 00:07:00,48.4,41.5,30.19,WSW,249,0.0,0.0,77,0.00,,,0.00,Wunderground v.1.15,2013-05-12 05:07:00,
2013-05-12 00:12:00,48.0,41.1,30.19,WSW,249,0.0,0.0,77,0.00,,,0.00,Wunderground v.1.15,2013-05-12 05:12:00,
2013-05-12 00:17:00,47.7,40.5,30.19,WSW,249,0.0,0.0,76,0.00,,,0.00,Wunderground v.1.15,2013-05-12 05:17:00,
2013-05-12 00:22:00,47.4,40.6,30.19,WSW,248,0.0,0.0,77,0.00,,,0.00,Wunderground v.1.15,2013-05-12 05:22:00,
2013-05-12 00:27:00,47.1,40.3,30.19,WSW,249,0.0,0.0,77,0.00,,,0.00,Wunderground v.1.15,2013-05-12 05:27:00,
2013-05-12 00:32:00,47.0,38.4,30.19,WSW,248,0.0,0.0,72,0.00,,,0.00,Wunderground v.1.15,2013-05-12 05:32:00,
2013-05-12 00:37:00,47.3,40.1,30.19,WSW,249,0.0,0.0,76,0.00,,,0.00,Wunderground v.1.15,2013-05-12 05:37:00,
2013-05-12 00:42:00,47.4,37.7,30.19,WSW,249,0.0,0.0,69,0.00,,,0.00,Wunderground v.1.15,2013-05-12 05:42:00,
2013-05-12 00:52:00,47.8,36.6,30.19,WSW,249,0.0,0.0,65,0.00,,,0.00,Wunderground v.1.15,2013-05-12 05:52:00,
2013-05-12 00:57:00,48.0,37.2,30.19,WSW,249,0.0,0.0,66,0.00,,,0.00,Wunderground v.1.15,2013-05-12 05:57:00,
2013-05-12 01:02:00,48.2,40.6,30.19,WSW,249,0.0,0.0,75,0.00,,,0.00,Wunderground v.1.15,2013-05-12 06:02:00,
2013-05-12 01:07:00,48.2,40.3,30.19,WSW,249,0.0,0.0,74,0.00,,,0.00,Wunderground v.1.15,2013-05-12 06:07:00,
2013-05-12 01:12:00,48.1,36.5,30.20,WSW,249,0.0,0.0,64,0.00,,,0.00,Wunderground v.1.15,2013-05-12 06:12:00,
2013-05-12 01:17:00,48.1,36.9,30.20,WNW,283,0.0,0.0,65,0.00,,,0.00,Wunderground v.1.15,2013-05-12 06:17:00,
2013-05-12 01:27:00,47.9,33.8,30.19,WNW,284,0.0,0.0,58,0.00,,,0.00,Wunderground v.1.15,2013-05-12 06:27:00,
2013-05-12 01:32:00,47.8,34.2,30.19,WNW,283,0.0,0.0,59,0.00,,,0.00,Wunderground v.1.15,2013-05-12 06:32:00,
2013-05-12 01:42:00,47.4,34.6,30.20,WNW,284,0.0,0.0,61,0.00,,,0.00,Wunderground v.1.15,2013-05-12 06:42:00,
2013-05-12 01:47:00,47.2,34.8,30.20,WNW,282,0.0,0.0,62,0.00,,,0.00,Wunderground v.1.15,2013-05-12 06:47:00,
2013-05-12 01:52:00,47.0,37.0,30.20,WNW,283,0.0,0.0,68,0.00,,,0.00,Wunderground v.1.15,2013-05-12 06:52:00,
2013-05-12 02:02:00,46.5,38.0,30.20,WNW,284,0.0,0.0,72,0.00,,,0.00,Wunderground v.1.15,2013-05-12 07:02:00,
2013-05-12 02:07:00,46.1,38.3,30.19,WNW,284,0.0,0.0,74,0.00,,,0.00,Wunderground v.1.15,2013-05-12 07:07:00,
2013-05-12 02:12:00,45.7,38.2,30.19,WNW,284,0.0,0.0,75,0.00,,,0.00,Wunderground v.1.15,2013-05-12 07:12:00,
2013-05-12 02:17:00,45.2,38.1,30.19,WNW,284,0.0,0.0,76,0.00,,,0.00,Wunderground v.1.15,2013-05-12 07:17:00,
2013-05-12 02:22:00,44.7,38.3,30.19,WNW,283,0.0,0.0,78,0.00,,,0.00,Wunderground v.1.15,2013-05-12 07:22:00,
2013-05-12 02:27:00,44.3,38.2,30.19,WNW,284,0.0,0.0,79,0.00,,,0.00,Wunderground v.1.15,2013-05-12 07:27:00,
2013-05-12 02:32:00,43.9,38.1,30.19,WNW,284,0.0,0.0,80,0.00,,,0.00,Wunderground v.1.15,2013-05-12 07:32:00,
2013-05-12 02:37:00,43.6,38.5,30.19,WNW,283,0.0,0.0,82,0.00,,,0.00,Wunderground v.1.15,2013-05-12 07:37:00,
2013-05-12 02:42:00,43.3,38.2,30.19,WNW,284,0.0,0.0,82,0.00,,,0.00,Wunderground v.1.15,2013-05-12 07:42:00,
2013-05-12 02:47:00,42.9,38.1,30.19,WNW,283,0.0,0.0,83,0.00,,,0.00,Wunderground v.1.15,2013-05-12 07:47:00,
2013-05-12 02:52:00,42.7,38.2,30.19,WNW,284,0.0,0.0,84,0.00,,,0.00,Wunderground v.1.15,2013-05-12 07:52:00,
2013-05-12 02:57:00,42.5,38.0,30.19,WNW,284,0.0,0.0,84,0.00,,,0.00,Wunderground v.1.15,2013-05-12 07:57:00,
2013-05-12 03:02:00,42.3,38.1,30.19,WNW,284,0.0,0.0,85,0.00,,,0.00,Wunderground v.1.15,2013-05-12 08:02:00,
2013-05-12 03:07:00,42.1,37.9,30.19,WNW,283,0.0,0.0,85,0.00,,,0.00,Wunderground v.1.15,2013-05-12 08:07:00,
2013-05-12 03:12:00,42.0,38.1,30.19,WNW,283,0.0,0.0,86,0.00,,,0.00,Wunderground v.1.15,2013-05-12 08:12:00,
2013-05-12 03:17:00,41.9,38.3,30.19,WNW,283,0.0,0.0,87,0.00,,,0.00,Wunderground v.1.15,2013-05-12 08:17:00,
2013-05-12 03:22:00,41.9,38.3,30.20,WNW,284,0.0,0.0,87,0.00,,,0.00,Wunderground v.1.15,2013-05-12 08:22:00,
2013-05-12 03:27:00,41.7,38.1,30.20,WNW,284,0.0,0.0,87,0.00,,,0.00,Wunderground v.1.15,2013-05-12 08:27:00,
2013-05-12 03:32:00,41.6,38.3,30.20,WNW,284,0.0,0.0,88,0.00,,,0.00,Wunderground v.1.15,2013-05-12 08:32:00,
2013-05-12 03:37:00,41.5,38.2,30.20,WNW,283,0.0,0.0,88,0.00,,,0.00,Wunderground v.1.15,2013-05-12 08:37:00,
2013-05-12 03:42:00,41.4,38.1,30.20,WNW,283,0.0,0.0,88,0.00,,,0.00,Wunderground v.1.15,2013-05-12 08:42:00,
2013-05-12 03:47:00,41.5,38.5,30.20,WNW,283,0.0,0.0,89,0.00,,,0.00,Wunderground v.1.15,2013-05-12 08:47:00,
2013-05-12 03:52:00,41.4,38.4,30.20,WNW,284,0.0,0.0,89,0.00,,,0.00,Wunderground v.1.15,2013-05-12 08:52:00,
2013-05-12 03:57:00,41.4,38.4,30.20,WNW,283,0.0,0.0,89,0.00,,,0.00,Wunderground v.1.15,2013-05-12 08:57:00,
2013-05-12 04:02:00,41.2,38.2,30.20,WNW,284,0.0,0.0,89,0.00,,,0.00,Wunderground v.1.15,2013-05-12 09:02:00,
2013-05-12 04:07:00,41.1,38.1,30.20,WNW,284,0.0,0.0,89,0.00,,,0.00,Wunderground v.1.15,2013-05-12 09:07:00,
2013-05-12 04:12:00,40.9,37.6,30.21,WNW,284,0.0,0.0,88,0.00,,,0.00,Wunderground v.1.15,2013-05-12 09:12:00,
2013-05-12 04:17:00,40.8,37.8,30.21,WNW,283,0.0,0.0,89,0.00,,,0.00,Wunderground v.1.15,2013-05-12 09:17:00,
2013-05-12 04:22:00,40.7,37.7,30.21,WNW,284,0.0,0.0,89,0.00,,,0.00,Wunderground v.1.15,2013-05-12 09:22:00,
2013-05-12 04:27:00,40.7,37.7,30.21,WNW,284,0.0,0.0,89,0.00,,,0.00,Wunderground v.1.15,2013-05-12 09:27:00,
2013-05-12 04:32:00,40.6,37.6,30.21,WNW,283,0.0,0.0,89,0.00,,,0.00,Wunderground v.1.15,2013-05-12 09:32:00,
2013-05-12 04:42:00,40.3,37.6,30.21,WNW,284,0.0,0.0,90,0.00,,,0.00,Wunderground v.1.15,2013-05-12 09:42:00,
2013-05-12 04:47:00,40.3,37.6,30.21,WNW,284,0.0,0.0,90,0.00,,,0.00,Wunderground v.1.15,2013-05-12 09:47:00,
2013-05-12 04:52:00,40.1,37.4,30.21,WNW,284,0.0,0.0,90,0.00,,,0.00,Wunderground v.1.15,2013-05-12 09:52:00,
2013-05-12 04:57:00,40.0,37.3,30.21,WNW,283,0.0,0.0,90,0.00,,,0.00,Wunderground v.1.15,2013-05-12 09:57:00,
2013-05-12 05:02:00,40.0,37.3,30.21,WNW,284,0.0,0.0,90,0.00,,,0.00,Wunderground v.1.15,2013-05-12 10:02:00,
2013-05-12 05:07:00,39.9,37.2,30.21,WNW,284,0.0,0.0,90,0.00,,,0.00,Wunderground v.1.15,2013-05-12 10:07:00,
2013-05-12 05:12:00,39.8,37.1,30.22,WNW,283,0.0,0.0,90,0.00,,,0.00,Wunderground v.1.15,2013-05-12 10:12:00,
2013-05-12 05:17:00,39.6,36.9,30.22,WNW,284,0.0,0.0,90,0.00,,,0.00,Wunderground v.1.15,2013-05-12 10:17:00,
2013-05-12 05:22:00,39.5,37.1,30.22,WNW,284,0.0,0.0,91,0.00,,,0.00,Wunderground v.1.15,2013-05-12 10:22:00,
2013-05-12 05:32:00,39.7,37.6,30.22,WNW,284,0.0,0.0,92,0.00,,,0.00,Wunderground v.1.15,2013-05-12 10:32:00,
2013-05-12 05:37:00,39.7,37.6,30.22,WNW,283,0.0,0.0,92,0.00,,,0.00,Wunderground v.1.15,2013-05-12 10:37:00,
2013-05-12 05:42:00,39.6,37.5,30.22,WNW,283,0.0,0.0,92,0.00,,,0.00,Wunderground v.1.15,2013-05-12 10:42:00,
2013-05-12 05:47:00,39.6,37.5,30.22,WNW,283,0.0,0.0,92,0.00,,,0.00,Wunderground v.1.15,2013-05-12 10:47:00,
2013-05-12 05:52:00,39.6,37.5,30.22,WNW,283,0.0,0.0,92,0.00,,,0.00,Wunderground v.1.15,2013-05-12 10:52:00,
2013-05-12 05:57:00,39.7,37.6,30.22,WNW,284,0.0,0.0,92,0.00,,,0.00,Wunderground v.1.15,2013-05-12 10:57:00,
2013-05-12 06:02:00,39.7,37.6,30.22,WNW,284,0.0,0.0,92,0.00,,,0.00,Wunderground v.1.15,2013-05-12 11:02:00,
2013-05-12 06:07:00,39.6,37.5,30.22,WNW,284,0.0,0.0,92,0.00,,,0.00,Wunderground v.1.15,2013-05-12 11:07:00,
2013-05-12 06:12:00,39.5,37.4,30.22,WNW,283,0.0,0.0,92,0.00,,,0.00,Wunderground v.1.15,2013-05-12 11:12:00,
2013-05-12 06:22:00,39.6,37.5,30.22,WNW,284,0.0,0.0,92,0.00,,,0.00,Wunderground v.1.15,2013-05-12 11:22:00,
2013-05-12 06:27:00,39.7,37.6,30.23,WNW,284,0.0,0.0,92,0.00,,,0.00,Wunderground v.1.15,2013-05-12 11:27:00,
2013-05-12 06:32:00,39.8,37.7,30.23,WNW,284,0.0,0.0,92,0.00,,,0.00,Wunderground v.1.15,2013-05-12 11:32:00,
2013-05-12 06:37:00,40.1,38.0,30.23,WNW,284,0.0,0.0,92,0.00,,,0.00,Wunderground v.1.15,2013-05-12 11:37:00,
2013-05-12 06:42:00,40.4,38.3,30.23,WNW,283,0.0,0.0,92,0.00,,,0.00,Wunderground v.1.15,2013-05-12 11:42:00,
2013-05-12 06:47:00,40.6,38.5,30.24,WNW,284,0.0,0.0,92,0.00,,,0.00,Wunderground v.1.15,2013-05-12 11:47:00,
2013-05-12 06:52:00,40.9,38.8,30.24,WNW,283,0.0,0.0,92,0.00,,,0.00,Wunderground v.1.15,2013-05-12 11:52:00,
2013-05-12 06:57:00,41.3,39.2,30.24,WNW,284,0.0,0.0,92,0.00,,,0.00,Wunderground v.1.15,2013-05-12 11:57:00,
2013-05-12 07:02:00,41.8,39.6,30.24,WNW,283,0.0,0.0,92,0.00,,,0.00,Wunderground v.1.15,2013-05-12 12:02:00,
2013-05-12 07:12:00,42.7,38.2,30.24,WSW,253,0.0,0.0,84,0.00,,,0.00,Wunderground v.1.15,2013-05-12 12:12:00,
2013-05-12 07:17:00,43.2,36.5,30.24,WSW,253,0.0,0.0,77,0.00,,,0.00,Wunderground v.1.15,2013-05-12 12:17:00,
2013-05-12 07:22:00,44.0,37.9,30.24,WSW,253,0.0,0.0,79,0.00,,,0.00,Wunderground v.1.15,2013-05-12 12:22:00,
2013-05-12 07:27:00,44.6,35.4,30.24,WNW,287,0.0,0.0,70,0.00,,,0.00,Wunderground v.1.15,2013-05-12 12:27:00,
2013-05-12 07:32:00,45.2,36.4,30.24,WNW,287,0.0,0.0,71,0.00,,,0.00,Wunderground v.1.15,2013-05-12 12:32:00,
2013-05-12 07:37:00,45.8,35.5,30.24,WNW,287,0.0,0.0,67,0.00,,,0.00,Wunderground v.1.15,2013-05-12 12:37:00,
2013-05-12 07:42:00,46.3,35.6,30.25,West,274,0.0,0.0,66,0.00,,,0.00,Wunderground v.1.15,2013-05-12 12:42:00,
2013-05-12 07:47:00,46.6,35.5,30.25,WNW,290,0.0,0.0,65,0.00,,,0.00,Wunderground v.1.15,2013-05-12 12:47:00,
2013-05-12 07:52:00,47.2,34.8,30.25,WNW,282,0.0,0.0,62,0.00,,,0.00,Wunderground v.1.15,2013-05-12 12:52:00,
2013-05-12 07:57:00,47.7,34.9,30.25,WNW,290,0.0,0.0,61,0.00,,,0.00,Wunderground v.1.15,2013-05-12 12:57:00,
2013-05-12 08:02:00,48.0,33.9,30.25,WSW,252,0.0,0.0,58,0.00,,,0.00,Wunderground v.1.15,2013-05-12 13:02:00,
2013-05-12 08:07:00,48.1,33.6,30.25,WNW,287,0.0,0.0,57,0.00,,,0.00,Wunderground v.1.15,2013-05-12 13:07:00,
2013-05-12 08:12:00,48.2,34.1,30.25,WSW,252,0.0,0.0,58,0.00,,,0.00,Wunderground v.1.15,2013-05-12 13:12:00,
2013-05-12 08:17:00,48.4,34.7,30.25,WNW,290,0.0,0.0,59,0.00,,,0.00,Wunderground v.1.15,2013-05-12 13:17:00,
2013-05-12 08:22:00,48.6,34.0,30.25,WNW,301,0.0,1.0,57,0.00,,,0.00,Wunderground v.1.15,2013-05-12 13:22:00,
2013-05-12 08:27:00,48.8,33.8,30.25,WNW,302,1.0,1.0,56,0.00,,,0.00,Wunderground v.1.15,2013-05-12 13:27:00,
2013-05-12 08:32:00,48.9,33.9,30.25,West,280,0.0,0.0,56,0.00,,,0.00,Wunderground v.1.15,2013-05-12 13:32:00,
2013-05-12 08:37:00,49.0,34.0,30.25,WNW,298,0.0,0.0,56,0.00,,,0.00,Wunderground v.1.15,2013-05-12 13:37:00,
2013-05-12 08:47:00,49.4,33.9,30.25,WNW,295,0.0,3.0,55,0.00,,,0.00,Wunderground v.1.15,2013-05-12 13:47:00,
2013-05-12 08:52:00,49.6,32.7,30.25,WNW,302,1.0,2.0,52,0.00,,,0.00,Wunderground v.1.15,2013-05-12 13:52:00,
2013-05-12 08:57:00,50.0,34.5,30.25,WNW,293,1.0,2.0,55,0.00,,,0.00,Wunderground v.1.15,2013-05-12 13:57:00,
2013-05-12 09:07:00,50.6,32.1,30.26,NW,307,1.0,2.0,49,0.00,,,0.00,Wunderground v.1.15,2013-05-12 14:07:00,
2013-05-12 09:12:00,51.0,32.5,30.26,South,179,1.0,1.0,49,0.00,,,0.00,Wunderground v.1.15,2013-05-12 14:12:00,
2013-05-12 09:17:00,51.3,33.3,30.26,West,281,0.0,1.0,50,0.00,,,0.00,Wunderground v.1.15,2013-05-12 14:17:00,
2013-05-12 09:22:00,51.3,32.3,30.26,WNW,297,1.0,2.0,48,0.00,,,0.00,Wunderground v.1.15,2013-05-12 14:22:00,
2013-05-12 09:27:00,51.4,31.8,30.26,WNW,297,1.0,2.0,47,0.00,,,0.00,Wunderground v.1.15,2013-05-12 14:27:00,
2013-05-12 09:32:00,51.9,32.8,30.26,North,351,1.0,1.0,48,0.00,,,0.00,Wunderground v.1.15,2013-05-12 14:32:00,
2013-05-12 09:37:00,52.3,32.6,30.26,WNW,295,0.0,1.0,47,0.00,,,0.00,Wunderground v.1.15,2013-05-12 14:37:00,
2013-05-12 09:42:00,52.6,32.4,30.26,West,264,0.0,1.0,46,0.00,,,0.00,Wunderground v.1.15,2013-05-12 14:42:00,
2013-05-12 09:47:00,53.0,32.8,30.27,NNW,335,0.0,1.0,46,0.00,,,0.00,Wunderground v.1.15,2013-05-12 14:47:00,
2013-05-12 09:52:00,52.8,30.9,30.26,WSW,257,1.0,2.0,43,0.00,,,0.00,Wunderground v.1.15,2013-05-12 14:52:00,
2013-05-12 09:57:00,53.2,30.7,30.27,WNW,286,1.0,2.0,42,0.00,,,0.00,Wunderground v.1.15,2013-05-12 14:57:00,
2013-05-12 10:02:00,53.7,31.1,30.27,ENE,71,1.0,1.0,42,0.00,,,0.00,Wunderground v.1.15,2013-05-12 15:02:00,
2013-05-12 10:07:00,54.4,28.0,30.27,NW,309,1.0,1.0,36,0.00,,,0.00,Wunderground v.1.15,2013-05-12 15:07:00,
2013-05-12 10:12:00,54.1,29.0,30.27,WNW,283,1.0,1.0,38,0.00,,,0.00,Wunderground v.1.15,2013-05-12 15:12:00,
2013-05-12 10:17:00,54.3,31.1,30.27,South,169,1.0,1.0,41,0.00,,,0.00,Wunderground v.1.15,2013-05-12 15:17:00,
2013-05-12 10:22:00,54.5,28.1,30.27,West,271,1.0,1.0,36,0.00,,,0.00,Wunderground v.1.15,2013-05-12 15:22:00,
2013-05-12 10:27:00,54.5,28.7,30.27,South,190,1.0,1.0,37,0.00,,,0.00,Wunderground v.1.15,2013-05-12 15:27:00,
2013-05-12 10:32:00,54.6,28.8,30.27,NNE,32,1.0,2.0,37,0.00,,,0.00,Wunderground v.1.15,2013-05-12 15:32:00,
2013-05-12 10:37:00,55.1,27.9,30.27,WNW,284,1.0,2.0,35,0.00,,,0.00,Wunderground v.1.15,2013-05-12 15:37:00,
2013-05-12 10:42:00,55.4,27.5,30.27,West,264,1.0,1.0,34,0.00,,,0.00,Wunderground v.1.15,2013-05-12 15:42:00,
2013-05-12 10:47:00,55.5,28.3,30.26,WSW,248,1.0,3.0,35,0.00,,,0.00,Wunderground v.1.15,2013-05-12 15:47:00,
2013-05-12 10:52:00,55.5,30.3,30.26,WNW,282,1.0,1.0,38,0.00,,,0.00,Wunderground v.1.15,2013-05-12 15:52:00,
2013-05-12 10:57:00,55.4,26.7,30.26,WSW,253,1.0,4.0,33,0.00,,,0.00,Wunderground v.1.15,2013-05-12 15:57:00,
2013-05-12 11:02:00,55.6,31.0,30.26,East,79,2.0,2.0,39,0.00,,,0.00,Wunderground v.1.15,2013-05-12 16:02:00,
2013-05-12 11:07:00,56.4,28.3,30.26,ESE,103,2.0,2.0,34,0.00,,,0.00,Wunderground v.1.15,2013-05-12 16:07:00,
2013-05-12 11:12:00,56.3,25.2,30.26,WNW,301,1.0,1.0,30,0.00,,,0.00,Wunderground v.1.15,2013-05-12 16:12:00,
2013-05-12 11:22:00,56.2,26.7,30.26,WNW,298,1.0,1.0,32,0.00,,,0.00,Wunderground v.1.15,2013-05-12 16:22:00,
2013-05-12 11:27:00,56.6,27.8,30.26,North,9,1.0,1.0,33,0.00,,,0.00,Wunderground v.1.15,2013-05-12 16:27:00,
2013-05-12 11:32:00,56.8,30.1,30.26,NNW,330,1.0,1.0,36,0.00,,,0.00,Wunderground v.1.15,2013-05-12 16:32:00,
2013-05-12 11:37:00,57.0,27.4,30.26,NNE,26,1.0,1.0,32,0.00,,,0.00,Wunderground v.1.15,2013-05-12 16:37:00,
2013-05-12 11:42:00,57.3,27.7,30.26,WSW,245,0.0,1.0,32,0.00,,,0.00,Wunderground v.1.15,2013-05-12 16:42:00,
2013-05-12 11:47:00,57.3,26.9,30.26,WNW,291,1.0,6.0,31,0.00,,,0.00,Wunderground v.1.15,2013-05-12 16:47:00,
2013-05-12 11:57:00,57.2,26.0,30.26,West,277,2.0,2.0,30,0.00,,,0.00,Wunderground v.1.15,2013-05-12 16:57:00,
2013-05-12 12:07:00,58.0,27.5,30.25,WNW,301,1.0,3.0,31,0.00,,,0.00,Wunderground v.1.15,2013-05-12 17:07:00,
2013-05-12 12:12:00,58.0,27.5,30.25,NW,319,1.0,5.0,31,0.00,,,0.00,Wunderground v.1.15,2013-05-12 17:12:00,
2013-05-12 12:17:00,58.2,28.5,30.25,West,275,1.0,5.0,32,0.00,,,0.00,Wunderground v.1.15,2013-05-12 17:17:00,
2013-05-12 12:22:00,58.4,29.4,30.25,North,354,1.0,1.0,33,0.00,,,0.00,Wunderground v.1.15,2013-05-12 17:22:00,
2013-05-12 12:27:00,58.5,27.9,30.25,West,263,2.0,3.0,31,0.00,,,0.00,Wunderground v.1.15,2013-05-12 17:27:00,
2013-05-12 12:32:00,58.8,29.0,30.25,West,263,2.0,2.0,32,0.00,,,0.00,Wunderground v.1.15,2013-05-12 17:32:00,
2013-05-12 12:37:00,59.2,30.1,30.24,ENE,64,1.0,3.0,33,0.00,,,0.00,Wunderground v.1.15,2013-05-12 17:37:00,
2013-05-12 12:42:00,59.1,29.2,30.24,NE,53,1.0,1.0,32,0.00,,,0.00,Wunderground v.1.15,2013-05-12 17:42:00,
2013-05-12 12:52:00,60.1,27.7,30.24,West,281,1.0,4.0,29,0.00,,,0.00,Wunderground v.1.15,2013-05-12 17:52:00,
2013-05-12 12:57:00,60.3,28.7,30.24,NW,307,1.0,4.0,30,0.00,,,0.00,Wunderground v.1.15,2013-05-12 17:57:00,
2013-05-12 13:02:00,60.6,27.3,30.24,NW,307,1.0,1.0,28,0.00,,,0.00,Wunderground v.1.15,2013-05-12 18:02:00,
2013-05-12 13:07:00,61.0,27.6,30.24,WSW,246,1.0,1.0,28,0.00,,,0.00,Wunderground v.1.15,2013-05-12 18:07:00,
2013-05-12 13:12:00,61.0,30.1,30.24,ENE,75,1.0,1.0,31,0.00,,,0.00,Wunderground v.1.15,2013-05-12 18:12:00,
2013-05-12 13:22:00,61.5,28.1,30.24,NNW,342,1.0,1.0,28,0.00,,,0.00,Wunderground v.1.15,2013-05-12 18:22:00,
2013-05-12 13:32:00,62.0,28.5,30.23,NW,306,1.0,1.0,28,0.00,,,0.00,Wunderground v.1.15,2013-05-12 18:32:00,
2013-05-12 13:37:00,62.0,31.8,30.23,North,5,1.0,1.0,32,0.00,,,0.00,Wunderground v.1.15,2013-05-12 18:37:00,
2013-05-12 13:42:00,62.0,31.0,30.23,East,85,2.0,2.0,31,0.00,,,0.00,Wunderground v.1.15,2013-05-12 18:42:00,
2013-05-12 13:47:00,62.1,28.6,30.23,NNW,340,2.0,2.0,28,0.00,,,0.00,Wunderground v.1.15,2013-05-12 18:47:00,
2013-05-12 13:52:00,62.6,32.3,30.23,ESE,102,2.0,3.0,32,0.00,,,0.00,Wunderground v.1.15,2013-05-12 18:52:00,
2013-05-12 13:57:00,62.7,30.0,30.23,East,88,1.0,3.0,29,0.00,,,0.00,Wunderground v.1.15,2013-05-12 18:57:00,
2013-05-12 14:02:00,62.5,28.9,30.22,East,84,1.0,1.0,28,0.00,,,0.00,Wunderground v.1.15,2013-05-12 19:02:00,
2013-05-12 14:07:00,62.6,29.9,30.22,NNE,27,1.0,1.0,29,0.00,,,0.00,Wunderground v.1.15,2013-05-12 19:07:00,
2013-05-12 14:12:00,62.7,27.3,30.22,ENE,77,1.0,1.0,26,0.00,,,0.00,Wunderground v.1.15,2013-05-12 19:12:00,
2013-05-12 14:17:00,62.3,30.4,30.22,WSW,256,2.0,2.0,30,0.00,,,0.00,Wunderground v.1.15,2013-05-12 19:17:00,
2013-05-12 14:22:00,62.4,27.9,30.22,ESE,107,1.0,1.0,27,0.00,,,0.00,Wunderground v.1.15,2013-05-12 19:22:00,
2013-05-12 14:27:00,62.4,28.8,30.22,WNW,283,1.0,1.0,28,0.00,,,0.00,Wunderground v.1.15,2013-05-12 19:27:00,
2013-05-12 14:32:00,62.3,31.3,30.22,ENE,61,1.0,1.0,31,0.00,,,0.00,Wunderground v.1.15,2013-05-12 19:32:00,
2013-05-12 14:37:00,62.5,30.6,30.22,NW,304,1.0,5.0,30,0.00,,,0.00,Wunderground v.1.15,2013-05-12 19:37:00,
2013-05-12 14:47:00,62.8,30.0,30.22,NE,44,1.0,1.0,29,0.00,,,0.00,Wunderground v.1.15,2013-05-12 19:47:00,
2013-05-12 14:52:00,62.6,28.1,30.22,NNE,16,1.0,1.0,27,0.00,,,0.00,Wunderground v.1.15,2013-05-12 19:52:00,
2013-05-12 15:02:00,62.7,29.1,30.21,NNE,25,1.0,1.0,28,0.00,,,0.00,Wunderground v.1.15,2013-05-12 20:02:00,
2013-05-12 15:07:00,63.3,30.5,30.21,ENE,71,1.0,1.0,29,0.00,,,0.00,Wunderground v.1.15,2013-05-12 20:07:00,
2013-05-12 15:12:00,63.1,28.5,30.21,South,172,1.0,1.0,27,0.00,,,0.00,Wunderground v.1.15,2013-05-12 20:12:00,
2013-05-12 15:17:00,63.3,30.5,30.20,SSE,164,1.0,1.0,29,0.00,,,0.00,Wunderground v.1.15,2013-05-12 20:17:00,
2013-05-12 15:22:00,63.7,30.0,30.20,ESE,105,1.0,1.0,28,0.00,,,0.00,Wunderground v.1.15,2013-05-12 20:22:00,
2013-05-12 15:27:00,63.6,33.9,30.20,NE,41,1.0,1.0,33,0.00,,,0.00,Wunderground v.1.15,2013-05-12 20:27:00,
2013-05-12 15:32:00,63.2,30.4,30.20,NE,36,1.0,2.0,29,0.00,,,0.00,Wunderground v.1.15,2013-05-12 20:32:00,
2013-05-12 15:42:00,62.8,29.2,30.20,East,95,1.0,1.0,28,0.00,,,0.00,Wunderground v.1.15,2013-05-12 20:42:00,
2013-05-12 15:47:00,63.0,32.7,30.19,West,271,1.0,1.0,32,0.00,,,0.00,Wunderground v.1.15,2013-05-12 20:47:00,
2013-05-12 15:57:00,62.9,31.0,30.19,ENE,71,1.0,2.0,30,0.00,,,0.00,Wunderground v.1.15,2013-05-12 20:57:00,
2013-05-12 16:02:00,62.4,29.7,30.19,WSW,250,1.0,1.0,29,0.00,,,0.00,Wunderground v.1.15,2013-05-12 21:02:00,
2013-05-12 16:07:00,62.1,28.6,30.19,WNW,290,1.0,1.0,28,0.00,,,0.00,Wunderground v.1.15,2013-05-12 21:07:00,
2013-05-12 16:12:00,62.9,30.1,30.20,NNE,30,1.0,1.0,29,0.00,,,0.00,Wunderground v.1.15,2013-05-12 21:12:00,
2013-05-12 16:17:00,63.1,30.3,30.20,WSW,255,1.0,3.0,29,0.00,,,0.00,Wunderground v.1.15,2013-05-12 21:17:00,
2013-05-12 16:22:00,63.4,33.0,30.19,West,277,1.0,2.0,32,0.00,,,0.00,Wunderground v.1.15,2013-05-12 21:22:00,
2013-05-12 16:27:00,63.1,29.4,30.19,ENE,67,1.0,2.0,28,0.00,,,0.00,Wunderground v.1.15,2013-05-12 21:27:00,
2013-05-12 16:32:00,63.4,32.2,30.19,NNW,342,1.0,1.0,31,0.00,,,0.00,Wunderground v.1.15,2013-05-12 21:32:00,
2013-05-12 16:37:00,63.5,28.0,30.19,WSW,248,1.0,1.0,26,0.00,,,0.00,Wunderground v.1.15,2013-05-12 21:37:00,
2013-05-12 16:42:00,63.6,29.9,30.19,SSE,151,1.0,1.0,28,0.00,,,0.00,Wunderground v.1.15,2013-05-12 21:42:00,
2013-05-12 16:47:00,63.8,28.2,30.19,West,268,1.0,1.0,26,0.00,,,0.00,Wunderground v.1.15,2013-05-12 21:47:00,
2013-05-12 16:52:00,64.1,30.3,30.18,WSW,248,1.0,1.0,28,0.00,,,0.00,Wunderground v.1.15,2013-05-12 21:52:00,
2013-05-12 16:57:00,64.2,27.6,30.18,WSW,255,1.0,2.0,25,0.00,,,0.00,Wunderground v.1.15,2013-05-12 21:57:00,
2013-05-12 17:02:00,64.2,26.6,30.18,West,267,1.0,1.0,24,0.00,,,0.00,Wunderground v.1.15,2013-05-12 22:02:00,
2013-05-12 17:07:00,63.9,29.2,30.18,ESE,103,1.0,1.0,27,0.00,,,0.00,Wunderground v.1.15,2013-05-12 22:07:00,
2013-05-12 17:12:00,63.3,32.9,30.18,SSE,163,1.0,1.0,32,0.00,,,0.00,Wunderground v.1.15,2013-05-12 22:12:00,
2013-05-12 17:17:00,63.3,31.3,30.18,NNW,342,1.0,1.0,30,0.00,,,0.00,Wunderground v.1.15,2013-05-12 22:17:00,
2013-05-12 17:22:00,62.8,30.0,30.18,NNW,329,1.0,2.0,29,0.00,,,0.00,Wunderground v.1.15,2013-05-12 22:22:00,
2013-05-12 17:27:00,63.2,28.6,30.18,North,354,1.0,2.0,27,0.00,,,0.00,Wunderground v.1.15,2013-05-12 22:27:00,
2013-05-12 17:32:00,63.3,32.1,30.18,North,349,1.0,1.0,31,0.00,,,0.00,Wunderground v.1.15,2013-05-12 22:32:00,
2013-05-12 17:42:00,63.7,28.1,30.18,WNW,288,1.0,1.0,26,0.00,,,0.00,Wunderground v.1.15,2013-05-12 22:42:00,
2013-05-12 17:47:00,63.2,32.8,30.18,NNW,328,1.0,1.0,32,0.00,,,0.00,Wunderground v.1.15,2013-05-12 22:47:00,
2013-05-12 17:52:00,62.4,27.9,30.18,NE,35,1.0,2.0,27,0.00,,,0.00,Wunderground v.1.15,2013-05-12 22:52:00,
2013-05-12 17:57:00,62.2,27.8,30.17,NNE,15,1.0,2.0,27,0.00,,,0.00,Wunderground v.1.15,2013-05-12 22:57:00,
2013-05-12 18:02:00,61.7,33.7,30.17,West,259,1.0,2.0,35,0.00,,,0.00,Wunderground v.1.15,2013-05-12 23:02:00,
2013-05-12 18:07:00,61.8,27.4,30.17,NNE,22,1.0,2.0,27,0.00,,,0.00,Wunderground v.1.15,2013-05-12 23:07:00,
2013-05-12 18:12:00,61.9,30.9,30.17,WSW,255,1.0,1.0,31,0.00,,,0.00,Wunderground v.1.15,2013-05-12 23:12:00,
2013-05-12 18:17:00,61.9,27.5,30.17,SW,226,1.0,1.0,27,0.00,,,0.00,Wunderground v.1.15,2013-05-12 23:17:00,
2013-05-12 18:22:00,62.1,27.7,30.17,West,270,1.0,1.0,27,0.00,,,0.00,Wunderground v.1.15,2013-05-12 23:22:00,
2013-05-12 18:27:00,61.8,31.6,30.17,WNW,288,1.0,1.0,32,0.00,,,0.00,Wunderground v.1.15,2013-05-12 23:27:00,
2013-05-12 18:32:00,61.6,28.1,30.17,WNW,290,1.0,1.0,28,0.00,,,0.00,Wunderground v.1.15,2013-05-12 23:32:00,
2013-05-12 18:37:00,61.7,33.7,30.17,NW,316,0.0,1.0,35,0.00,,,0.00,Wunderground v.1.15,2013-05-12 23:37:00,
2013-05-12 18:42:00,61.3,28.7,30.17,WSW,253,0.0,0.0,29,0.00,,,0.00,Wunderground v.1.15,2013-05-12 23:42:00,
2013-05-12 18:47:00,61.0,29.3,30.17,NW,325,1.0,1.0,30,0.00,,,0.00,Wunderground v.1.15,2013-05-12 23:47:00,
2013-05-12 18:52:00,60.3,31.8,30.17,NNW,347,0.0,0.0,34,0.00,,,0.00,Wunderground v.1.15,2013-05-12 23:52:00,
2013-05-12 18:57:00,59.8,30.6,30.17,NNW,347,0.0,0.0,33,0.00,,,0.00,Wunderground v.1.15,2013-05-12 23:57:00,
2013-05-12 19:02:00,59.4,30.3,30.17,NNW,347,0.0,0.0,33,0.00,,,0.00,Wunderground v.1.15,2013-05-13 00:02:00,
2013-05-12 19:07:00,59.0,29.9,30.17,WSW,246,0.0,0.0,33,0.00,,,0.00,Wunderground v.1.15,2013-05-13 00:07:00,
2013-05-12 19:12:00,58.7,31.1,30.18,WSW,245,0.0,0.0,35,0.00,,,0.00,Wunderground v.1.15,2013-05-13 00:12:00,
2013-05-12 19:17:00,58.4,30.8,30.18,WSW,246,0.0,0.0,35,0.00,,,0.00,Wunderground v.1.15,2013-05-13 00:17:00,
2013-05-12 19:22:00,58.1,29.8,30.18,WSW,245,0.0,0.0,34,0.00,,,0.00,Wunderground v.1.15,2013-05-13 00:22:00,
2013-05-12 19:27:00,57.9,29.7,30.18,WSW,246,0.0,0.0,34,0.00,,,0.00,Wunderground v.1.15,2013-05-13 00:27:00,
2013-05-12 19:32:00,57.8,31.7,30.18,WSW,246,0.0,0.0,37,0.00,,,0.00,Wunderground v.1.15,2013-05-13 00:32:00,
2013-05-12 19:37:00,57.6,32.2,30.18,WSW,246,0.0,0.0,38,0.00,,,0.00,Wunderground v.1.15,2013-05-13 00:37:00,
2013-05-12 19:42:00,57.3,34.4,30.18,WSW,245,0.0,0.0,42,0.00,,,0.00,Wunderground v.1.15,2013-05-13 00:42:00,
2013-05-12 19:52:00,56.7,38.8,30.18,WSW,245,0.0,0.0,51,0.00,,,0.00,Wunderground v.1.15,2013-05-13 00:52:00,
2013-05-12 19:57:00,56.4,34.2,30.18,WSW,246,0.0,0.0,43,0.00,,,0.00,Wunderground v.1.15,2013-05-13 00:57:00,
2013-05-12 20:02:00,56.2,35.7,30.18,WSW,246,0.0,0.0,46,0.00,,,0.00,Wunderground v.1.15,2013-05-13 01:02:00,
2013-05-12 20:07:00,56.0,40.1,30.18,WSW,246,0.0,0.0,55,0.00,,,0.00,Wunderground v.1.15,2013-05-13 01:07:00,
2013-05-12 20:12:00,55.8,39.9,30.18,WSW,246,0.0,0.0,55,0.00,,,0.00,Wunderground v.1.15,2013-05-13 01:12:00,
2013-05-12 20:22:00,55.0,40.5,30.18,WSW,245,0.0,0.0,58,0.00,,,0.00,Wunderground v.1.15,2013-05-13 01:22:00,
2013-05-12 20:27:00,54.6,38.7,30.18,WSW,246,0.0,0.0,55,0.00,,,0.00,Wunderground v.1.15,2013-05-13 01:27:00,
2013-05-12 20:32:00,54.0,37.7,30.18,WSW,245,0.0,0.0,54,0.00,,,0.00,Wunderground v.1.15,2013-05-13 01:32:00,
2013-05-12 20:37:00,53.4,38.1,30.18,WSW,245,0.0,0.0,56,0.00,,,0.00,Wunderground v.1.15,2013-05-13 01:37:00,
2013-05-12 20:42:00,53.1,40.4,30.19,WSW,245,0.0,0.0,62,0.00,,,0.00,Wunderground v.1.15,2013-05-13 01:42:00,
2013-05-12 20:47:00,52.8,41.0,30.19,WSW,245,0.0,0.0,64,0.00,,,0.00,Wunderground v.1.15,2013-05-13 01:47:00,
2013-05-12 20:52:00,52.4,39.8,30.19,WSW,245,0.0,0.0,62,0.00,,,0.00,Wunderground v.1.15,2013-05-13 01:52:00,
2013-05-12 20:57:00,51.8,37.9,30.19,WSW,245,0.0,0.0,59,0.00,,,0.00,Wunderground v.1.15,2013-05-13 01:57:00,
2013-05-12 21:02:00,51.4,38.0,30.19,WSW,245,0.0,0.0,60,0.00,,,0.00,Wunderground v.1.15,2013-05-13 02:02:00,
2013-05-12 21:07:00,50.9,37.9,30.20,WSW,245,0.0,0.0,61,0.00,,,0.00,Wunderground v.1.15,2013-05-13 02:07:00,
2013-05-12 21:12:00,50.6,38.1,30.20,WSW,245,0.0,0.0,62,0.00,,,0.00,Wunderground v.1.15,2013-05-13 02:12:00,
2013-05-12 21:17:00,50.3,39.0,30.20,WSW,245,0.0,0.0,65,0.00,,,0.00,Wunderground v.1.15,2013-05-13 02:17:00,
2013-05-12 21:27:00,49.6,38.7,30.20,WSW,245,0.0,0.0,66,0.00,,,0.00,Wunderground v.1.15,2013-05-13 02:27:00,
2013-05-12 21:32:00,49.3,39.6,30.21,WSW,245,0.0,0.0,69,0.00,,,0.00,Wunderground v.1.15,2013-05-13 02:32:00,
2013-05-12 21:37:00,48.9,39.5,30.21,WSW,245,0.0,0.0,70,0.00,,,0.00,Wunderground v.1.15,2013-05-13 02:37:00,
2013-05-12 21:42:00,48.6,39.3,30.21,WSW,245,0.0,0.0,70,0.00,,,0.00,Wunderground v.1.15,2013-05-13 02:42:00,
2013-05-12 21:47:00,48.3,39.3,30.21,WSW,245,0.0,0.0,71,0.00,,,0.00,Wunderground v.1.15,2013-05-13 02:47:00,
2013-05-12 21:52:00,48.1,39.9,30.21,WSW,245,0.0,0.0,73,0.00,,,0.00,Wunderground v.1.15,2013-05-13 02:52:00,
2013-05-12 21:57:00,47.7,38.8,30.21,WSW,245,0.0,0.0,71,0.00,,,0.00,Wunderground v.1.15,2013-05-13 02:57:00,
2013-05-12 22:02:00,47.3,38.4,30.21,WSW,245,0.0,0.0,71,0.00,,,0.00,Wunderground v.1.15,2013-05-13 03:02:00,
2013-05-12 22:07:00,47.1,39.6,30.21,WSW,245,0.0,0.0,75,0.00,,,0.00,Wunderground v.1.15,2013-05-13 03:07:00,
2013-05-12 22:12:00,46.8,39.3,30.21,WSW,245,0.0,0.0,75,0.00,,,0.00,Wunderground v.1.15,2013-05-13 03:12:00,
2013-05-12 22:17:00,46.5,39.3,30.21,WSW,245,0.0,0.0,76,0.00,,,0.00,Wunderground v.1.15,2013-05-13 03:17:00,
2013-05-12 22:21:00,46.4,39.6,30.22,WSW,245,0.0,0.0,77,0.00,,,0.00,Wunderground v.1.15,2013-05-13 03:21:00,
2013-05-12 22:26:00,46.2,39.7,30.21,WSW,245,0.0,0.0,78,0.00,,,0.00,Wunderground v.1.15,2013-05-13 03:26:00,
2013-05-12 22:31:00,45.9,39.1,30.21,WSW,245,0.0,0.0,77,0.00,,,0.00,Wunderground v.1.15,2013-05-13 03:31:00,
2013-05-12 22:36:00,45.6,39.1,30.21,WSW,245,0.0,0.0,78,0.00,,,0.00,Wunderground v.1.15,2013-05-13 03:36:00,
2013-05-12 22:41:00,45.4,39.6,30.21,WSW,245,0.0,0.0,80,0.00,,,0.00,Wunderground v.1.15,2013-05-13 03:41:00,
2013-05-12 22:46:00,45.2,39.1,30.21,WSW,245,0.0,0.0,79,0.00,,,0.00,Wunderground v.1.15,2013-05-13 03:46:00,
2013-05-12 22:51:00,45.0,39.2,30.21,WSW,245,0.0,0.0,80,0.00,,,0.00,Wunderground v.1.15,2013-05-13 03:51:00,
2013-05-12 22:56:00,44.9,39.4,30.21,WSW,245,0.0,0.0,81,0.00,,,0.00,Wunderground v.1.15,2013-05-13 03:56:00,
2013-05-12 23:01:00,44.7,39.5,30.21,WSW,245,0.0,0.0,82,0.00,,,0.00,Wunderground v.1.15,2013-05-13 04:01:00,
2013-05-12 23:06:00,44.4,39.2,30.21,WSW,245,0.0,0.0,82,0.00,,,0.00,Wunderground v.1.15,2013-05-13 04:06:00,
2013-05-12 23:11:00,44.2,39.4,30.21,WSW,245,0.0,0.0,83,0.00,,,0.00,Wunderground v.1.15,2013-05-13 04:11:00,
2013-05-12 23:16:00,43.9,39.1,30.21,WSW,245,0.0,0.0,83,0.00,,,0.00,Wunderground v.1.15,2013-05-13 04:16:00,
2013-05-12 23:21:00,43.8,39.3,30.21,WSW,245,0.0,0.0,84,0.00,,,0.00,Wunderground v.1.15,2013-05-13 04:21:00,
2013-05-12 23:26:00,43.7,39.2,30.21,WSW,245,0.0,0.0,84,0.00,,,0.00,Wunderground v.1.15,2013-05-13 04:26:00,
2013-05-12 23:31:00,43.5,39.3,30.21,WSW,245,0.0,0.0,85,0.00,,,0.00,Wunderground v.1.15,2013-05-13 04:31:00,
2013-05-12 23:36:00,43.3,39.1,30.21,WSW,245,0.0,0.0,85,0.00,,,0.00,Wunderground v.1.15,2013-05-13 04:36:00,
2013-05-12 23:41:00,43.2,39.0,30.21,WSW,245,0.0,0.0,85,0.00,,,0.00,Wunderground v.1.15,2013-05-13 04:41:00,
2013-05-12 23:51:00,42.8,38.9,30.21,WSW,245,0.0,0.0,86,0.00,,,0.00,Wunderground v.1.15,2013-05-13 04:51:00,
2013-05-12 23:56:00,42.6,38.7,30.21,WSW,245,0.0,0.0,86,0.00,,,0.00,Wunderground v.1.15,2013-05-13 04:56:00,